sensor_id;sensor_type;location;lat;lon;timestamp;P1;durP1;ratioP1;P2;durP2;ratioP2
72493;SDS011;60520;49.182;-0.348;2023-05-07T00:01:13;2.03;;;1.20;;
72493;SDS011;60520;49.182;-0.348;2023-05-07T00:03:40;1.90;;;1.08;;
72493;SDS011;60520;49.182;-0.348;2023-05-07T00:06:08;2.67;;;1.30;;
72493;SDS011;60520;49.182;-0.348;2023-05-07T00:08:37;2.00;;;0.93;;
72493;SDS011;60520;49.182;-0.348;2023-05-07T00:11:04;2.35;;;1.10;;
72493;SDS011;60520;49.182;-0.348;2023-05-07T00:13:33;2.72;;;1.20;;
72493;SDS011;60520;49.182;-0.348;2023-05-07T00:16:00;2.20;;;1.20;;
72493;SDS011;60520;49.182;-0.348;2023-05-07T00:18:27;2.75;;;1.20;;
72493;SDS011;60520;49.182;-0.348;2023-05-07T00:20:55;1.67;;;1.10;;
72493;SDS011;60520;49.182;-0.348;2023-05-07T00:23:22;2.50;;;1.30;;
72493;SDS011;60520;49.182;-0.348;2023-05-07T00:25:49;3.80;;;1.40;;
72493;SDS011;60520;49.182;-0.348;2023-05-07T00:28:16;2.03;;;1.20;;
72493;SDS011;60520;49.182;-0.348;2023-05-07T00:30:44;2.28;;;1.25;;
72493;SDS011;60520;49.182;-0.348;2023-05-07T00:33:12;2.30;;;1.30;;
72493;SDS011;60520;49.182;-0.348;2023-05-07T00:35:39;2.03;;;1.20;;
72493;SDS011;60520;49.182;-0.348;2023-05-07T00:38:06;1.98;;;1.08;;
72493;SDS011;60520;49.182;-0.348;2023-05-07T00:40:33;2.67;;;1.08;;
72493;SDS011;60520;49.182;-0.348;2023-05-07T00:43:00;1.95;;;1.30;;
72493;SDS011;60520;49.182;-0.348;2023-05-07T00:45:27;2.80;;;1.08;;
72493;SDS011;60520;49.182;-0.348;2023-05-07T00:47:57;1.35;;;1.02;;
72493;SDS011;60520;49.182;-0.348;2023-05-07T00:50:24;2.70;;;1.05;;
72493;SDS011;60520;49.182;-0.348;2023-05-07T00:52:52;2.03;;;1.30;;
72493;SDS011;60520;49.182;-0.348;2023-05-07T00:55:20;2.20;;;1.08;;
72493;SDS011;60520;49.182;-0.348;2023-05-07T00:57:47;2.65;;;1.15;;
72493;SDS011;60520;49.182;-0.348;2023-05-07T01:00:14;1.90;;;1.00;;
72493;SDS011;60520;49.182;-0.348;2023-05-07T01:02:42;4.07;;;1.48;;
72493;SDS011;60520;49.182;-0.348;2023-05-07T01:05:11;2.40;;;1.27;;
72493;SDS011;60520;49.182;-0.348;2023-05-07T01:07:39;1.60;;;1.00;;
72493;SDS011;60520;49.182;-0.348;2023-05-07T01:10:07;2.05;;;1.17;;
72493;SDS011;60520;49.182;-0.348;2023-05-07T01:12:35;1.35;;;0.93;;
72493;SDS011;60520;49.182;-0.348;2023-05-07T01:15:04;1.92;;;1.10;;
72493;SDS011;60520;49.182;-0.348;2023-05-07T01:17:32;2.10;;;1.27;;
72493;SDS011;60520;49.182;-0.348;2023-05-07T01:20:00;3.42;;;1.13;;
72493;SDS011;60520;49.182;-0.348;2023-05-07T01:22:31;2.05;;;1.20;;
72493;SDS011;60520;49.182;-0.348;2023-05-07T01:24:58;1.60;;;1.10;;
72493;SDS011;60520;49.182;-0.348;2023-05-07T01:27:26;3.58;;;1.40;;
72493;SDS011;60520;49.182;-0.348;2023-05-07T01:29:53;2.58;;;1.23;;
72493;SDS011;60520;49.182;-0.348;2023-05-07T01:32:25;1.77;;;1.20;;
72493;SDS011;60520;49.182;-0.348;2023-05-07T01:34:54;2.92;;;1.40;;
72493;SDS011;60520;49.182;-0.348;2023-05-07T01:37:22;2.15;;;1.20;;
72493;SDS011;60520;49.182;-0.348;2023-05-07T01:39:51;1.52;;;1.05;;
72493;SDS011;60520;49.182;-0.348;2023-05-07T01:42:19;2.42;;;1.20;;
72493;SDS011;60520;49.182;-0.348;2023-05-07T01:44:46;2.97;;;1.35;;
72493;SDS011;60520;49.182;-0.348;2023-05-07T01:47:13;2.40;;;1.17;;
72493;SDS011;60520;49.182;-0.348;2023-05-07T01:49:41;2.63;;;1.08;;
72493;SDS011;60520;49.182;-0.348;2023-05-07T01:52:09;2.72;;;1.05;;
72493;SDS011;60520;49.182;-0.348;2023-05-07T01:54:36;2.67;;;1.05;;
72493;SDS011;60520;49.182;-0.348;2023-05-07T01:57:05;1.27;;;1.00;;
72493;SDS011;60520;49.182;-0.348;2023-05-07T01:59:32;1.77;;;1.00;;
72493;SDS011;60520;49.182;-0.348;2023-05-07T02:01:59;2.20;;;1.30;;
72493;SDS011;60520;49.182;-0.348;2023-05-07T02:04:26;2.38;;;1.10;;
72493;SDS011;60520;49.182;-0.348;2023-05-07T02:06:53;2.38;;;1.10;;
72493;SDS011;60520;49.182;-0.348;2023-05-07T02:09:20;1.65;;;1.20;;
72493;SDS011;60520;49.182;-0.348;2023-05-07T02:11:48;2.13;;;1.10;;
72493;SDS011;60520;49.182;-0.348;2023-05-07T02:14:17;2.20;;;0.98;;
72493;SDS011;60520;49.182;-0.348;2023-05-07T02:16:45;2.95;;;1.13;;
72493;SDS011;60520;49.182;-0.348;2023-05-07T02:19:12;2.22;;;1.08;;
72493;SDS011;60520;49.182;-0.348;2023-05-07T02:21:39;2.25;;;0.95;;
72493;SDS011;60520;49.182;-0.348;2023-05-07T02:24:06;1.83;;;1.15;;
72493;SDS011;60520;49.182;-0.348;2023-05-07T02:26:33;1.80;;;1.20;;
72493;SDS011;60520;49.182;-0.348;2023-05-07T02:29:00;1.50;;;1.10;;
72493;SDS011;60520;49.182;-0.348;2023-05-07T02:31:29;1.85;;;1.00;;
72493;SDS011;60520;49.182;-0.348;2023-05-07T02:33:56;2.80;;;1.10;;
72493;SDS011;60520;49.182;-0.348;2023-05-07T02:36:23;1.95;;;1.10;;
72493;SDS011;60520;49.182;-0.348;2023-05-07T02:38:51;2.40;;;1.20;;
72493;SDS011;60520;49.182;-0.348;2023-05-07T02:41:18;2.35;;;1.00;;
72493;SDS011;60520;49.182;-0.348;2023-05-07T02:43:46;2.55;;;1.20;;
72493;SDS011;60520;49.182;-0.348;2023-05-07T02:46:13;1.48;;;0.90;;
72493;SDS011;60520;49.182;-0.348;2023-05-07T02:48:42;1.20;;;1.02;;
72493;SDS011;60520;49.182;-0.348;2023-05-07T02:51:09;3.10;;;1.00;;
72493;SDS011;60520;49.182;-0.348;2023-05-07T02:53:36;2.20;;;1.30;;
72493;SDS011;60520;49.182;-0.348;2023-05-07T02:56:03;2.05;;;1.00;;
72493;SDS011;60520;49.182;-0.348;2023-05-07T02:58:31;2.22;;;1.00;;
72493;SDS011;60520;49.182;-0.348;2023-05-07T03:00:58;1.75;;;1.05;;
72493;SDS011;60520;49.182;-0.348;2023-05-07T03:03:25;2.38;;;1.17;;
72493;SDS011;60520;49.182;-0.348;2023-05-07T03:05:54;2.13;;;1.20;;
72493;SDS011;60520;49.182;-0.348;2023-05-07T03:08:21;1.50;;;1.10;;
72493;SDS011;60520;49.182;-0.348;2023-05-07T03:10:48;3.15;;;1.10;;
72493;SDS011;60520;49.182;-0.348;2023-05-07T03:13:15;1.45;;;0.82;;
72493;SDS011;60520;49.182;-0.348;2023-05-07T03:15:42;2.15;;;1.10;;
72493;SDS011;60520;49.182;-0.348;2023-05-07T03:18:09;2.20;;;1.20;;
72493;SDS011;60520;49.182;-0.348;2023-05-07T03:20:36;1.55;;;1.00;;
72493;SDS011;60520;49.182;-0.348;2023-05-07T03:23:05;3.70;;;1.00;;
72493;SDS011;60520;49.182;-0.348;2023-05-07T03:25:32;1.52;;;0.95;;
72493;SDS011;60520;49.182;-0.348;2023-05-07T03:27:59;1.50;;;0.93;;
72493;SDS011;60520;49.182;-0.348;2023-05-07T03:30:26;1.85;;;1.10;;
72493;SDS011;60520;49.182;-0.348;2023-05-07T03:32:53;1.95;;;1.13;;
72493;SDS011;60520;49.182;-0.348;2023-05-07T03:35:20;1.92;;;1.10;;
72493;SDS011;60520;49.182;-0.348;2023-05-07T03:37:47;2.05;;;1.10;;
72493;SDS011;60520;49.182;-0.348;2023-05-07T03:40:17;2.53;;;1.15;;
72493;SDS011;60520;49.182;-0.348;2023-05-07T03:42:44;2.38;;;1.20;;
72493;SDS011;60520;49.182;-0.348;2023-05-07T03:45:11;1.63;;;1.10;;
72493;SDS011;60520;49.182;-0.348;2023-05-07T03:47:38;1.67;;;0.90;;
72493;SDS011;60520;49.182;-0.348;2023-05-07T03:50:05;2.25;;;1.10;;
72493;SDS011;60520;49.182;-0.348;2023-05-07T03:52:32;1.20;;;0.80;;
72493;SDS011;60520;49.182;-0.348;2023-05-07T03:55:00;1.75;;;1.05;;
72493;SDS011;60520;49.182;-0.348;2023-05-07T03:57:28;1.38;;;1.00;;
72493;SDS011;60520;49.182;-0.348;2023-05-07T03:59:56;1.25;;;0.90;;
72493;SDS011;60520;49.182;-0.348;2023-05-07T04:02:23;1.90;;;1.10;;
72493;SDS011;60520;49.182;-0.348;2023-05-07T04:04:50;2.42;;;0.90;;
72493;SDS011;60520;49.182;-0.348;2023-05-07T04:07:17;2.17;;;1.10;;
72493;SDS011;60520;49.182;-0.348;2023-05-07T04:09:44;1.17;;;0.80;;
72493;SDS011;60520;49.182;-0.348;2023-05-07T04:12:11;1.48;;;0.88;;
72493;SDS011;60520;49.182;-0.348;2023-05-07T04:14:39;1.65;;;1.00;;
72493;SDS011;60520;49.182;-0.348;2023-05-07T04:17:06;1.58;;;0.90;;
72493;SDS011;60520;49.182;-0.348;2023-05-07T04:19:34;1.30;;;0.82;;
72493;SDS011;60520;49.182;-0.348;2023-05-07T04:22:02;1.45;;;0.85;;
72493;SDS011;60520;49.182;-0.348;2023-05-07T04:24:30;1.63;;;0.93;;
72493;SDS011;60520;49.182;-0.348;2023-05-07T04:26:58;1.77;;;1.10;;
72493;SDS011;60520;49.182;-0.348;2023-05-07T04:29:25;1.23;;;0.98;;
72493;SDS011;60520;49.182;-0.348;2023-05-07T04:31:53;1.25;;;1.00;;
72493;SDS011;60520;49.182;-0.348;2023-05-07T04:34:21;1.90;;;1.00;;
72493;SDS011;60520;49.182;-0.348;2023-05-07T04:36:48;1.13;;;0.80;;
72493;SDS011;60520;49.182;-0.348;2023-05-07T04:39:15;1.27;;;0.90;;
72493;SDS011;60520;49.182;-0.348;2023-05-07T04:41:43;1.10;;;1.00;;
72493;SDS011;60520;49.182;-0.348;2023-05-07T04:44:10;1.50;;;1.10;;
72493;SDS011;60520;49.182;-0.348;2023-05-07T04:46:37;2.58;;;1.13;;
72493;SDS011;60520;49.182;-0.348;2023-05-07T04:49:05;1.38;;;0.90;;
72493;SDS011;60520;49.182;-0.348;2023-05-07T04:51:32;1.95;;;1.00;;
72493;SDS011;60520;49.182;-0.348;2023-05-07T04:53:59;1.70;;;0.80;;
72493;SDS011;60520;49.182;-0.348;2023-05-07T04:56:27;1.05;;;0.90;;
72493;SDS011;60520;49.182;-0.348;2023-05-07T04:58:54;1.88;;;0.98;;
72493;SDS011;60520;49.182;-0.348;2023-05-07T05:01:22;1.73;;;0.90;;
72493;SDS011;60520;49.182;-0.348;2023-05-07T05:03:49;1.77;;;0.98;;
72493;SDS011;60520;49.182;-0.348;2023-05-07T05:06:17;1.38;;;0.90;;
72493;SDS011;60520;49.182;-0.348;2023-05-07T05:08:44;2.10;;;0.93;;
72493;SDS011;60520;49.182;-0.348;2023-05-07T05:11:11;1.48;;;0.90;;
72493;SDS011;60520;49.182;-0.348;2023-05-07T05:13:38;1.73;;;0.90;;
72493;SDS011;60520;49.182;-0.348;2023-05-07T05:16:06;1.55;;;0.75;;
72493;SDS011;60520;49.182;-0.348;2023-05-07T05:18:33;1.90;;;1.00;;
72493;SDS011;60520;49.182;-0.348;2023-05-07T05:21:00;1.58;;;0.98;;
72493;SDS011;60520;49.182;-0.348;2023-05-07T05:23:29;1.58;;;1.02;;
72493;SDS011;60520;49.182;-0.348;2023-05-07T05:25:56;1.98;;;0.90;;
72493;SDS011;60520;49.182;-0.348;2023-05-07T05:28:23;1.33;;;0.90;;
72493;SDS011;60520;49.182;-0.348;2023-05-07T05:30:50;0.80;;;0.70;;
72493;SDS011;60520;49.182;-0.348;2023-05-07T05:33:17;1.10;;;0.73;;
72493;SDS011;60520;49.182;-0.348;2023-05-07T05:35:44;1.63;;;1.15;;
72493;SDS011;60520;49.182;-0.348;2023-05-07T05:38:13;1.55;;;1.00;;
72493;SDS011;60520;49.182;-0.348;2023-05-07T05:40:41;1.42;;;0.75;;
72493;SDS011;60520;49.182;-0.348;2023-05-07T05:43:08;2.13;;;0.95;;
72493;SDS011;60520;49.182;-0.348;2023-05-07T05:45:35;0.82;;;0.70;;
72493;SDS011;60520;49.182;-0.348;2023-05-07T05:48:03;1.75;;;1.10;;
72493;SDS011;60520;49.182;-0.348;2023-05-07T05:50:30;1.70;;;0.80;;
72493;SDS011;60520;49.182;-0.348;2023-05-07T05:52:57;1.40;;;0.93;;
72493;SDS011;60520;49.182;-0.348;2023-05-07T05:55:24;1.30;;;0.95;;
72493;SDS011;60520;49.182;-0.348;2023-05-07T05:57:52;1.30;;;0.98;;
72493;SDS011;60520;49.182;-0.348;2023-05-07T06:00:19;1.80;;;0.80;;
72493;SDS011;60520;49.182;-0.348;2023-05-07T06:02:47;1.83;;;1.08;;
72493;SDS011;60520;49.182;-0.348;2023-05-07T06:05:14;1.20;;;0.95;;
72493;SDS011;60520;49.182;-0.348;2023-05-07T06:07:42;1.48;;;1.00;;
72493;SDS011;60520;49.182;-0.348;2023-05-07T06:10:09;1.55;;;1.00;;
72493;SDS011;60520;49.182;-0.348;2023-05-07T06:12:36;1.50;;;0.90;;
72493;SDS011;60520;49.182;-0.348;2023-05-07T06:15:05;2.13;;;1.00;;
72493;SDS011;60520;49.182;-0.348;2023-05-07T06:17:32;2.53;;;1.05;;
72493;SDS011;60520;49.182;-0.348;2023-05-07T06:19:59;1.35;;;1.00;;
72493;SDS011;60520;49.182;-0.348;2023-05-07T06:22:26;1.35;;;0.98;;
72493;SDS011;60520;49.182;-0.348;2023-05-07T06:24:54;1.23;;;0.90;;
72493;SDS011;60520;49.182;-0.348;2023-05-07T06:27:21;1.23;;;0.80;;
72493;SDS011;60520;49.182;-0.348;2023-05-07T06:29:48;0.80;;;0.80;;
72493;SDS011;60520;49.182;-0.348;2023-05-07T06:32:16;1.02;;;0.80;;
72493;SDS011;60520;49.182;-0.348;2023-05-07T06:34:43;1.52;;;1.00;;
72493;SDS011;60520;49.182;-0.348;2023-05-07T06:37:11;1.58;;;1.13;;
72493;SDS011;60520;49.182;-0.348;2023-05-07T06:39:38;1.63;;;0.93;;
72493;SDS011;60520;49.182;-0.348;2023-05-07T06:42:05;1.65;;;1.00;;
72493;SDS011;60520;49.182;-0.348;2023-05-07T06:44:32;1.15;;;0.75;;
72493;SDS011;60520;49.182;-0.348;2023-05-07T06:46:59;1.17;;;0.90;;
72493;SDS011;60520;49.182;-0.348;2023-05-07T06:49:27;1.88;;;0.90;;
72493;SDS011;60520;49.182;-0.348;2023-05-07T06:51:55;1.45;;;0.80;;
72493;SDS011;60520;49.182;-0.348;2023-05-07T06:54:22;1.98;;;1.00;;
72493;SDS011;60520;49.182;-0.348;2023-05-07T06:56:49;1.10;;;0.80;;
72493;SDS011;60520;49.182;-0.348;2023-05-07T06:59:16;1.35;;;0.90;;
72493;SDS011;60520;49.182;-0.348;2023-05-07T07:01:44;1.75;;;0.90;;
72493;SDS011;60520;49.182;-0.348;2023-05-07T07:04:11;2.67;;;0.93;;
72493;SDS011;60520;49.182;-0.348;2023-05-07T07:06:39;2.65;;;1.10;;
72493;SDS011;60520;49.182;-0.348;2023-05-07T07:09:06;1.55;;;0.90;;
72493;SDS011;60520;49.182;-0.348;2023-05-07T07:11:34;1.65;;;0.82;;
72493;SDS011;60520;49.182;-0.348;2023-05-07T07:14:01;1.30;;;0.82;;
72493;SDS011;60520;49.182;-0.348;2023-05-07T07:16:30;1.05;;;0.90;;
72493;SDS011;60520;49.182;-0.348;2023-05-07T07:18:57;1.42;;;0.93;;
72493;SDS011;60520;49.182;-0.348;2023-05-07T07:21:24;1.20;;;0.80;;
72493;SDS011;60520;49.182;-0.348;2023-05-07T07:23:52;1.60;;;0.80;;
72493;SDS011;60520;49.182;-0.348;2023-05-07T07:26:19;0.95;;;0.68;;
72493;SDS011;60520;49.182;-0.348;2023-05-07T07:28:46;1.13;;;0.80;;
72493;SDS011;60520;49.182;-0.348;2023-05-07T07:31:14;0.98;;;0.80;;
72493;SDS011;60520;49.182;-0.348;2023-05-07T07:33:41;1.05;;;0.68;;
72493;SDS011;60520;49.182;-0.348;2023-05-07T07:36:08;1.30;;;0.80;;
72493;SDS011;60520;49.182;-0.348;2023-05-07T07:38:35;0.93;;;0.70;;
72493;SDS011;60520;49.182;-0.348;2023-05-07T07:41:04;1.33;;;0.80;;
72493;SDS011;60520;49.182;-0.348;2023-05-07T07:43:31;1.48;;;0.80;;
72493;SDS011;60520;49.182;-0.348;2023-05-07T07:45:58;1.05;;;0.70;;
72493;SDS011;60520;49.182;-0.348;2023-05-07T07:48:25;1.60;;;0.77;;
72493;SDS011;60520;49.182;-0.348;2023-05-07T07:50:52;0.90;;;0.75;;
72493;SDS011;60520;49.182;-0.348;2023-05-07T07:53:19;1.05;;;0.82;;
72493;SDS011;60520;49.182;-0.348;2023-05-07T07:55:46;1.92;;;0.80;;
72493;SDS011;60520;49.182;-0.348;2023-05-07T07:58:15;0.88;;;0.60;;
72493;SDS011;60520;49.182;-0.348;2023-05-07T08:00:42;1.20;;;0.70;;
72493;SDS011;60520;49.182;-0.348;2023-05-07T08:03:09;1.02;;;0.80;;
72493;SDS011;60520;49.182;-0.348;2023-05-07T08:05:36;1.63;;;0.70;;
72493;SDS011;60520;49.182;-0.348;2023-05-07T08:08:04;1.50;;;0.90;;
72493;SDS011;60520;49.182;-0.348;2023-05-07T08:10:31;1.10;;;0.80;;
72493;SDS011;60520;49.182;-0.348;2023-05-07T08:12:59;1.13;;;0.80;;
72493;SDS011;60520;49.182;-0.348;2023-05-07T08:15:28;1.25;;;0.90;;
72493;SDS011;60520;49.182;-0.348;2023-05-07T08:17:55;2.30;;;0.85;;
72493;SDS011;60520;49.182;-0.348;2023-05-07T08:20:23;1.52;;;0.70;;
72493;SDS011;60520;49.182;-0.348;2023-05-07T08:22:50;1.00;;;0.68;;
72493;SDS011;60520;49.182;-0.348;2023-05-07T08:25:18;3.28;;;0.80;;
72493;SDS011;60520;49.182;-0.348;2023-05-07T08:27:45;1.10;;;0.90;;
72493;SDS011;60520;49.182;-0.348;2023-05-07T08:30:12;0.80;;;0.60;;
72493;SDS011;60520;49.182;-0.348;2023-05-07T08:32:41;2.20;;;0.90;;
72493;SDS011;60520;49.182;-0.348;2023-05-07T08:35:08;0.95;;;0.57;;
72493;SDS011;60520;49.182;-0.348;2023-05-07T08:37:36;1.00;;;0.70;;
72493;SDS011;60520;49.182;-0.348;2023-05-07T08:40:03;1.50;;;0.88;;
72493;SDS011;60520;49.182;-0.348;2023-05-07T08:42:31;0.90;;;0.60;;
72493;SDS011;60520;49.182;-0.348;2023-05-07T08:44:59;1.65;;;0.90;;
72493;SDS011;60520;49.182;-0.348;2023-05-07T08:47:28;0.95;;;0.63;;
72493;SDS011;60520;49.182;-0.348;2023-05-07T08:49:57;0.88;;;0.70;;
72493;SDS011;60520;49.182;-0.348;2023-05-07T08:52:24;1.95;;;0.75;;
72493;SDS011;60520;49.182;-0.348;2023-05-07T08:54:52;1.77;;;0.90;;
72493;SDS011;60520;49.182;-0.348;2023-05-07T08:57:19;1.73;;;0.90;;
72493;SDS011;60520;49.182;-0.348;2023-05-07T08:59:46;1.40;;;0.70;;
72493;SDS011;60520;49.182;-0.348;2023-05-07T09:02:13;0.93;;;0.70;;
72493;SDS011;60520;49.182;-0.348;2023-05-07T09:04:41;0.80;;;0.70;;
72493;SDS011;60520;49.182;-0.348;2023-05-07T09:07:10;1.17;;;0.80;;
72493;SDS011;60520;49.182;-0.348;2023-05-07T09:09:37;1.48;;;0.88;;
72493;SDS011;60520;49.182;-0.348;2023-05-07T09:12:04;1.13;;;0.70;;
72493;SDS011;60520;49.182;-0.348;2023-05-07T09:14:31;1.80;;;0.88;;
72493;SDS011;60520;49.182;-0.348;2023-05-07T09:16:58;0.80;;;0.60;;
72493;SDS011;60520;49.182;-0.348;2023-05-07T09:19:26;0.95;;;0.73;;
72493;SDS011;60520;49.182;-0.348;2023-05-07T09:21:57;1.10;;;0.80;;
72493;SDS011;60520;49.182;-0.348;2023-05-07T09:24:27;1.30;;;0.80;;
72493;SDS011;60520;49.182;-0.348;2023-05-07T09:26:58;1.40;;;0.85;;
72493;SDS011;60520;49.182;-0.348;2023-05-07T09:29:26;1.00;;;0.70;;
72493;SDS011;60520;49.182;-0.348;2023-05-07T09:31:55;1.10;;;0.73;;
72493;SDS011;60520;49.182;-0.348;2023-05-07T09:34:22;2.00;;;0.77;;
72493;SDS011;60520;49.182;-0.348;2023-05-07T09:36:49;0.82;;;0.60;;
72493;SDS011;60520;49.182;-0.348;2023-05-07T09:39:16;1.40;;;0.70;;
72493;SDS011;60520;49.182;-0.348;2023-05-07T09:41:45;0.90;;;0.80;;
72493;SDS011;60520;49.182;-0.348;2023-05-07T09:44:12;0.85;;;0.70;;
72493;SDS011;60520;49.182;-0.348;2023-05-07T09:46:41;0.85;;;0.77;;
72493;SDS011;60520;49.182;-0.348;2023-05-07T09:49:10;0.98;;;0.70;;
72493;SDS011;60520;49.182;-0.348;2023-05-07T09:51:41;0.63;;;0.60;;
72493;SDS011;60520;49.182;-0.348;2023-05-07T09:54:09;0.82;;;0.68;;
72493;SDS011;60520;49.182;-0.348;2023-05-07T09:56:37;0.85;;;0.70;;
72493;SDS011;60520;49.182;-0.348;2023-05-07T09:59:08;1.00;;;0.77;;
72493;SDS011;60520;49.182;-0.348;2023-05-07T10:01:36;0.70;;;0.60;;
72493;SDS011;60520;49.182;-0.348;2023-05-07T10:04:03;1.08;;;0.70;;
72493;SDS011;60520;49.182;-0.348;2023-05-07T10:06:31;1.15;;;0.73;;
72493;SDS011;60520;49.182;-0.348;2023-05-07T10:08:58;1.05;;;0.70;;
72493;SDS011;60520;49.182;-0.348;2023-05-07T10:11:26;1.50;;;0.70;;
72493;SDS011;60520;49.182;-0.348;2023-05-07T10:13:53;1.15;;;0.70;;
72493;SDS011;60520;49.182;-0.348;2023-05-07T10:16:22;0.60;;;0.50;;
72493;SDS011;60520;49.182;-0.348;2023-05-07T10:18:49;2.05;;;1.00;;
72493;SDS011;60520;49.182;-0.348;2023-05-07T10:21:18;0.70;;;0.60;;
72493;SDS011;60520;49.182;-0.348;2023-05-07T10:23:51;0.75;;;0.57;;
72493;SDS011;60520;49.182;-0.348;2023-05-07T10:26:18;0.93;;;0.63;;
72493;SDS011;60520;49.182;-0.348;2023-05-07T10:28:47;2.15;;;0.70;;
72493;SDS011;60520;49.182;-0.348;2023-05-07T10:31:18;0.82;;;0.63;;
72493;SDS011;60520;49.182;-0.348;2023-05-07T10:33:52;1.17;;;0.80;;
72493;SDS011;60520;49.182;-0.348;2023-05-07T10:36:20;0.88;;;0.68;;
72493;SDS011;60520;49.182;-0.348;2023-05-07T10:38:48;0.80;;;0.70;;
72493;SDS011;60520;49.182;-0.348;2023-05-07T10:41:15;0.90;;;0.60;;
72493;SDS011;60520;49.182;-0.348;2023-05-07T10:43:44;0.80;;;0.60;;
72493;SDS011;60520;49.182;-0.348;2023-05-07T10:46:13;0.52;;;0.52;;
72493;SDS011;60520;49.182;-0.348;2023-05-07T10:51:28;1.05;;;0.63;;
72493;SDS011;60520;49.182;-0.348;2023-05-07T10:56:39;0.80;;;0.60;;
72493;SDS011;60520;49.182;-0.348;2023-05-07T11:01:56;1.02;;;0.80;;
72493;SDS011;60520;49.182;-0.348;2023-05-07T11:04:24;0.80;;;0.63;;
72493;SDS011;60520;49.182;-0.348;2023-05-07T11:12:18;1.13;;;0.73;;
72493;SDS011;60520;49.182;-0.348;2023-05-07T11:14:45;1.08;;;0.70;;
72493;SDS011;60520;49.182;-0.348;2023-05-07T11:17:12;1.75;;;0.80;;
72493;SDS011;60520;49.182;-0.348;2023-05-07T11:19:49;0.80;;;0.68;;
72493;SDS011;60520;49.182;-0.348;2023-05-07T11:22:35;0.77;;;0.50;;
72493;SDS011;60520;49.182;-0.348;2023-05-07T11:25:05;1.10;;;0.85;;
72493;SDS011;60520;49.182;-0.348;2023-05-07T11:27:33;0.80;;;0.68;;
72493;SDS011;60520;49.182;-0.348;2023-05-07T11:30:00;1.20;;;0.80;;
72493;SDS011;60520;49.182;-0.348;2023-05-07T11:32:28;0.80;;;0.55;;
72493;SDS011;60520;49.182;-0.348;2023-05-07T11:34:56;0.77;;;0.70;;
72493;SDS011;60520;49.182;-0.348;2023-05-07T11:37:23;1.00;;;0.63;;
72493;SDS011;60520;49.182;-0.348;2023-05-07T11:39:51;0.60;;;0.50;;
72493;SDS011;60520;49.182;-0.348;2023-05-07T11:42:29;0.90;;;0.70;;
72493;SDS011;60520;49.182;-0.348;2023-05-07T11:44:58;1.17;;;0.60;;
72493;SDS011;60520;49.182;-0.348;2023-05-07T11:47:25;1.33;;;0.70;;
72493;SDS011;60520;49.182;-0.348;2023-05-07T11:49:52;0.80;;;0.70;;
72493;SDS011;60520;49.182;-0.348;2023-05-07T11:52:20;1.08;;;0.70;;
72493;SDS011;60520;49.182;-0.348;2023-05-07T11:54:48;1.30;;;0.68;;
72493;SDS011;60520;49.182;-0.348;2023-05-07T11:57:15;0.80;;;0.60;;
72493;SDS011;60520;49.182;-0.348;2023-05-07T11:59:43;0.73;;;0.60;;
72493;SDS011;60520;49.182;-0.348;2023-05-07T12:02:13;1.05;;;0.68;;
72493;SDS011;60520;49.182;-0.348;2023-05-07T12:04:40;0.52;;;0.50;;
72493;SDS011;60520;49.182;-0.348;2023-05-07T12:07:10;1.35;;;0.63;;
72493;SDS011;60520;49.182;-0.348;2023-05-07T12:09:38;0.85;;;0.68;;
72493;SDS011;60520;49.182;-0.348;2023-05-07T12:12:06;0.68;;;0.65;;
72493;SDS011;60520;49.182;-0.348;2023-05-07T12:14:36;1.10;;;0.60;;
72493;SDS011;60520;49.182;-0.348;2023-05-07T12:17:04;1.00;;;0.70;;
72493;SDS011;60520;49.182;-0.348;2023-05-07T12:19:33;1.20;;;0.80;;
72493;SDS011;60520;49.182;-0.348;2023-05-07T12:22:00;1.05;;;0.63;;
72493;SDS011;60520;49.182;-0.348;2023-05-07T12:24:28;1.35;;;0.60;;
72493;SDS011;60520;49.182;-0.348;2023-05-07T12:26:55;0.55;;;0.52;;
72493;SDS011;60520;49.182;-0.348;2023-05-07T12:29:22;0.98;;;0.60;;
72493;SDS011;60520;49.182;-0.348;2023-05-07T12:31:49;0.98;;;0.70;;
72493;SDS011;60520;49.182;-0.348;2023-05-07T12:34:16;0.70;;;0.55;;
72493;SDS011;60520;49.182;-0.348;2023-05-07T12:36:45;0.80;;;0.60;;
72493;SDS011;60520;49.182;-0.348;2023-05-07T12:39:14;0.85;;;0.68;;
72493;SDS011;60520;49.182;-0.348;2023-05-07T12:44:24;0.68;;;0.60;;
72493;SDS011;60520;49.182;-0.348;2023-05-07T12:46:51;1.75;;;0.68;;
72493;SDS011;60520;49.182;-0.348;2023-05-07T12:49:19;0.65;;;0.60;;
72493;SDS011;60520;49.182;-0.348;2023-05-07T12:51:47;1.00;;;0.60;;
72493;SDS011;60520;49.182;-0.348;2023-05-07T12:54:27;0.95;;;0.68;;
72493;SDS011;60520;49.182;-0.348;2023-05-07T12:57:00;0.90;;;0.70;;
72493;SDS011;60520;49.182;-0.348;2023-05-07T12:59:30;0.75;;;0.55;;
72493;SDS011;60520;49.182;-0.348;2023-05-07T13:01:57;0.80;;;0.63;;
72493;SDS011;60520;49.182;-0.348;2023-05-07T13:04:24;1.08;;;0.65;;
72493;SDS011;60520;49.182;-0.348;2023-05-07T13:06:53;1.23;;;0.60;;
72493;SDS011;60520;49.182;-0.348;2023-05-07T13:09:20;1.35;;;0.75;;
72493;SDS011;60520;49.182;-0.348;2023-05-07T13:11:47;0.98;;;0.60;;
72493;SDS011;60520;49.182;-0.348;2023-05-07T13:14:14;0.77;;;0.60;;
72493;SDS011;60520;49.182;-0.348;2023-05-07T13:16:41;0.60;;;0.60;;
72493;SDS011;60520;49.182;-0.348;2023-05-07T13:19:08;0.50;;;0.50;;
72493;SDS011;60520;49.182;-0.348;2023-05-07T13:21:36;0.90;;;0.63;;
72493;SDS011;60520;49.182;-0.348;2023-05-07T13:24:04;0.63;;;0.63;;
72493;SDS011;60520;49.182;-0.348;2023-05-07T13:26:32;1.05;;;0.65;;
72493;SDS011;60520;49.182;-0.348;2023-05-07T13:28:59;0.70;;;0.65;;
72493;SDS011;60520;49.182;-0.348;2023-05-07T13:31:26;0.63;;;0.55;;
72493;SDS011;60520;49.182;-0.348;2023-05-07T13:33:53;0.70;;;0.65;;
72493;SDS011;60520;49.182;-0.348;2023-05-07T13:36:21;0.57;;;0.50;;
72493;SDS011;60520;49.182;-0.348;2023-05-07T13:38:48;1.08;;;0.75;;
72493;SDS011;60520;49.182;-0.348;2023-05-07T13:41:16;0.73;;;0.60;;
72493;SDS011;60520;49.182;-0.348;2023-05-07T13:43:44;0.70;;;0.70;;
72493;SDS011;60520;49.182;-0.348;2023-05-07T13:46:11;0.60;;;0.60;;
72493;SDS011;60520;49.182;-0.348;2023-05-07T13:48:38;0.60;;;0.60;;
72493;SDS011;60520;49.182;-0.348;2023-05-07T13:51:05;1.13;;;0.80;;
72493;SDS011;60520;49.182;-0.348;2023-05-07T13:53:32;0.60;;;0.60;;
72493;SDS011;60520;49.182;-0.348;2023-05-07T13:56:00;1.02;;;0.80;;
72493;SDS011;60520;49.182;-0.348;2023-05-07T13:58:30;1.23;;;0.68;;
72493;SDS011;60520;49.182;-0.348;2023-05-07T14:00:58;0.65;;;0.63;;
72493;SDS011;60520;49.182;-0.348;2023-05-07T14:03:25;0.93;;;0.70;;
72493;SDS011;60520;49.182;-0.348;2023-05-07T14:05:52;0.70;;;0.60;;
72493;SDS011;60520;49.182;-0.348;2023-05-07T14:08:19;1.52;;;0.70;;
72493;SDS011;60520;49.182;-0.348;2023-05-07T14:10:46;1.13;;;0.60;;
72493;SDS011;60520;49.182;-0.348;2023-05-07T14:13:13;0.57;;;0.57;;
72493;SDS011;60520;49.182;-0.348;2023-05-07T14:15:42;0.90;;;0.70;;
72493;SDS011;60520;49.182;-0.348;2023-05-07T14:18:11;1.10;;;0.60;;
72493;SDS011;60520;49.182;-0.348;2023-05-07T14:20:38;0.90;;;0.60;;
72493;SDS011;60520;49.182;-0.348;2023-05-07T14:23:05;0.77;;;0.63;;
72493;SDS011;60520;49.182;-0.348;2023-05-07T14:25:32;0.73;;;0.60;;
72493;SDS011;60520;49.182;-0.348;2023-05-07T14:28:00;1.00;;;0.77;;
72493;SDS011;60520;49.182;-0.348;2023-05-07T14:30:27;1.02;;;0.60;;
72493;SDS011;60520;49.182;-0.348;2023-05-07T14:32:55;1.25;;;0.80;;
72493;SDS011;60520;49.182;-0.348;2023-05-07T14:35:22;2.00;;;0.60;;
72493;SDS011;60520;49.182;-0.348;2023-05-07T14:37:49;0.85;;;0.70;;
72493;SDS011;60520;49.182;-0.348;2023-05-07T14:40:16;0.80;;;0.60;;
72493;SDS011;60520;49.182;-0.348;2023-05-07T14:42:43;0.88;;;0.70;;
72493;SDS011;60520;49.182;-0.348;2023-05-07T14:45:11;0.70;;;0.70;;
72493;SDS011;60520;49.182;-0.348;2023-05-07T14:47:38;1.42;;;0.68;;
72493;SDS011;60520;49.182;-0.348;2023-05-07T14:50:06;1.38;;;0.85;;
72493;SDS011;60520;49.182;-0.348;2023-05-07T14:52:34;0.90;;;0.73;;